sensor_id;sensor_type;location;lat;lon;timestamp;P1;durP1;ratioP1;P2;durP2;ratioP2
31270;SDS011;17904;47.420;9.310;2022-12-18T00:01:23;130.32;;;51.25;;
31270;SDS011;17904;47.420;9.310;2022-12-18T00:04:12;123.82;;;52.28;;
31270;SDS011;17904;47.420;9.310;2022-12-18T00:09:13;133.70;;;52.08;;
31270;SDS011;17904;47.420;9.310;2022-12-18T00:11:40;116.82;;;44.50;;
31270;SDS011;17904;47.420;9.310;2022-12-18T00:14:08;129.13;;;51.20;;
31270;SDS011;17904;47.420;9.310;2022-12-18T00:16:36;141.02;;;54.53;;
31270;SDS011;17904;47.420;9.310;2022-12-18T00:19:03;120.63;;;49.97;;
31270;SDS011;17904;47.420;9.310;2022-12-18T00:21:31;108.28;;;46.20;;
31270;SDS011;17904;47.420;9.310;2022-12-18T00:23:59;112.38;;;45.47;;
31270;SDS011;17904;47.420;9.310;2022-12-18T00:26:30;126.43;;;52.03;;
31270;SDS011;17904;47.420;9.310;2022-12-18T00:29:01;121.82;;;48.15;;
31270;SDS011;17904;47.420;9.310;2022-12-18T00:31:33;117.93;;;48.22;;
31270;SDS011;17904;47.420;9.310;2022-12-18T00:34:00;117.88;;;49.65;;
31270;SDS011;17904;47.420;9.310;2022-12-18T00:36:29;133.57;;;54.05;;
31270;SDS011;17904;47.420;9.310;2022-12-18T00:38:58;134.23;;;49.38;;
31270;SDS011;17904;47.420;9.310;2022-12-18T00:41:27;126.28;;;51.10;;
31270;SDS011;17904;47.420;9.310;2022-12-18T00:44:14;135.98;;;50.08;;
31270;SDS011;17904;47.420;9.310;2022-12-18T00:46:42;129.45;;;49.53;;
31270;SDS011;17904;47.420;9.310;2022-12-18T00:49:10;127.72;;;46.38;;
31270;SDS011;17904;47.420;9.310;2022-12-18T00:51:37;130.50;;;48.45;;
31270;SDS011;17904;47.420;9.310;2022-12-18T00:54:03;126.72;;;50.53;;
31270;SDS011;17904;47.420;9.310;2022-12-18T00:56:31;122.13;;;48.85;;
31270;SDS011;17904;47.420;9.310;2022-12-18T00:58:57;131.02;;;51.55;;
31270;SDS011;17904;47.420;9.310;2022-12-18T01:01:24;132.35;;;51.25;;
31270;SDS011;17904;47.420;9.310;2022-12-18T01:03:51;117.88;;;47.15;;
31270;SDS011;17904;47.420;9.310;2022-12-18T01:06:18;122.63;;;46.97;;
31270;SDS011;17904;47.420;9.310;2022-12-18T01:08:46;127.60;;;46.85;;
31270;SDS011;17904;47.420;9.310;2022-12-18T01:11:14;128.80;;;45.63;;
31270;SDS011;17904;47.420;9.310;2022-12-18T01:13:42;122.05;;;46.33;;
31270;SDS011;17904;47.420;9.310;2022-12-18T01:16:13;121.10;;;45.63;;
31270;SDS011;17904;47.420;9.310;2022-12-18T01:18:42;113.90;;;46.75;;
31270;SDS011;17904;47.420;9.310;2022-12-18T01:21:10;132.10;;;50.00;;
31270;SDS011;17904;47.420;9.310;2022-12-18T01:23:38;124.70;;;47.25;;
31270;SDS011;17904;47.420;9.310;2022-12-18T01:26:10;132.32;;;49.88;;
31270;SDS011;17904;47.420;9.310;2022-12-18T01:28:39;125.05;;;45.83;;
31270;SDS011;17904;47.420;9.310;2022-12-18T01:31:25;127.65;;;48.83;;
31270;SDS011;17904;47.420;9.310;2022-12-18T01:33:54;133.55;;;48.90;;
31270;SDS011;17904;47.420;9.310;2022-12-18T01:36:22;134.23;;;50.85;;
31270;SDS011;17904;47.420;9.310;2022-12-18T01:38:51;141.75;;;50.85;;
31270;SDS011;17904;47.420;9.310;2022-12-18T01:41:20;123.05;;;47.67;;
31270;SDS011;17904;47.420;9.310;2022-12-18T01:43:53;124.53;;;48.05;;
31270;SDS011;17904;47.420;9.310;2022-12-18T01:46:22;134.15;;;48.33;;
31270;SDS011;17904;47.420;9.310;2022-12-18T01:48:51;117.95;;;45.17;;
31270;SDS011;17904;47.420;9.310;2022-12-18T01:51:23;124.30;;;44.60;;
31270;SDS011;17904;47.420;9.310;2022-12-18T01:53:51;133.63;;;47.78;;
31270;SDS011;17904;47.420;9.310;2022-12-18T01:56:18;125.57;;;46.42;;
31270;SDS011;17904;47.420;9.310;2022-12-18T01:58:56;125.97;;;46.78;;
31270;SDS011;17904;47.420;9.310;2022-12-18T02:01:28;124.65;;;47.85;;
31270;SDS011;17904;47.420;9.310;2022-12-18T02:06:47;119.15;;;47.30;;
31270;SDS011;17904;47.420;9.310;2022-12-18T02:09:23;111.60;;;42.65;;
31270;SDS011;17904;47.420;9.310;2022-12-18T02:11:59;117.38;;;45.53;;
31270;SDS011;17904;47.420;9.310;2022-12-18T02:14:59;133.88;;;50.40;;
31270;SDS011;17904;47.420;9.310;2022-12-18T02:23:14;122.60;;;45.42;;
31270;SDS011;17904;47.420;9.310;2022-12-18T02:28:23;124.90;;;46.60;;
31270;SDS011;17904;47.420;9.310;2022-12-18T02:31:04;124.47;;;48.67;;
31270;SDS011;17904;47.420;9.310;2022-12-18T02:33:34;114.50;;;42.45;;
31270;SDS011;17904;47.420;9.310;2022-12-18T02:36:03;118.82;;;45.13;;
31270;SDS011;17904;47.420;9.310;2022-12-18T02:38:32;127.45;;;47.78;;
31270;SDS011;17904;47.420;9.310;2022-12-18T02:41:07;117.45;;;45.97;;
31270;SDS011;17904;47.420;9.310;2022-12-18T02:43:34;116.90;;;45.53;;
31270;SDS011;17904;47.420;9.310;2022-12-18T02:46:20;116.97;;;43.72;;
31270;SDS011;17904;47.420;9.310;2022-12-18T02:48:54;127.45;;;44.35;;
31270;SDS011;17904;47.420;9.310;2022-12-18T02:51:30;123.28;;;45.17;;
31270;SDS011;17904;47.420;9.310;2022-12-18T02:56:49;107.07;;;40.53;;
31270;SDS011;17904;47.420;9.310;2022-12-18T02:59:30;119.07;;;43.15;;
31270;SDS011;17904;47.420;9.310;2022-12-18T03:02:20;117.30;;;43.72;;
31270;SDS011;17904;47.420;9.310;2022-12-18T03:04:55;112.25;;;44.08;;
31270;SDS011;17904;47.420;9.310;2022-12-18T03:07:42;128.88;;;49.00;;
31270;SDS011;17904;47.420;9.310;2022-12-18T03:10:19;113.20;;;41.22;;
31270;SDS011;17904;47.420;9.310;2022-12-18T03:12:52;121.18;;;47.53;;
31270;SDS011;17904;47.420;9.310;2022-12-18T03:15:26;121.07;;;44.20;;
31270;SDS011;17904;47.420;9.310;2022-12-18T03:18:06;130.02;;;46.38;;
31270;SDS011;17904;47.420;9.310;2022-12-18T03:20:39;119.75;;;44.38;;
31270;SDS011;17904;47.420;9.310;2022-12-18T03:23:14;116.20;;;43.40;;
31270;SDS011;17904;47.420;9.310;2022-12-18T03:25:48;113.28;;;42.38;;
31270;SDS011;17904;47.420;9.310;2022-12-18T03:28:21;109.55;;;41.42;;
31270;SDS011;17904;47.420;9.310;2022-12-18T03:30:56;124.68;;;43.17;;
31270;SDS011;17904;47.420;9.310;2022-12-18T03:33:29;121.13;;;44.22;;
31270;SDS011;17904;47.420;9.310;2022-12-18T03:36:00;113.80;;;42.30;;
31270;SDS011;17904;47.420;9.310;2022-12-18T03:38:27;97.43;;;39.75;;
31270;SDS011;17904;47.420;9.310;2022-12-18T03:44:21;102.22;;;42.55;;
31270;SDS011;17904;47.420;9.310;2022-12-18T03:47:07;101.10;;;38.60;;
31270;SDS011;17904;47.420;9.310;2022-12-18T03:49:46;115.30;;;42.45;;
31270;SDS011;17904;47.420;9.310;2022-12-18T03:52:49;95.75;;;39.75;;
31270;SDS011;17904;47.420;9.310;2022-12-18T03:55:23;97.25;;;39.03;;
31270;SDS011;17904;47.420;9.310;2022-12-18T03:57:58;94.75;;;37.28;;
31270;SDS011;17904;47.420;9.310;2022-12-18T04:00:38;90.63;;;38.60;;
31270;SDS011;17904;47.420;9.310;2022-12-18T04:03:09;97.32;;;37.92;;
31270;SDS011;17904;47.420;9.310;2022-12-18T04:05:43;94.88;;;38.05;;
31270;SDS011;17904;47.420;9.310;2022-12-18T04:08:13;86.25;;;36.50;;
31270;SDS011;17904;47.420;9.310;2022-12-18T04:10:46;98.50;;;37.90;;
31270;SDS011;17904;47.420;9.310;2022-12-18T04:13:21;84.68;;;34.67;;
31270;SDS011;17904;47.420;9.310;2022-12-18T04:15:55;96.65;;;37.67;;
31270;SDS011;17904;47.420;9.310;2022-12-18T04:18:23;91.20;;;36.95;;
31270;SDS011;17904;47.420;9.310;2022-12-18T04:20:50;88.35;;;36.50;;
31270;SDS011;17904;47.420;9.310;2022-12-18T04:23:17;90.53;;;35.83;;
31270;SDS011;17904;47.420;9.310;2022-12-18T04:25:45;91.53;;;36.63;;
31270;SDS011;17904;47.420;9.310;2022-12-18T04:28:19;100.88;;;38.50;;
31270;SDS011;17904;47.420;9.310;2022-12-18T04:30:46;89.47;;;36.85;;
31270;SDS011;17904;47.420;9.310;2022-12-18T04:33:13;94.55;;;36.40;;
31270;SDS011;17904;47.420;9.310;2022-12-18T04:35:44;87.72;;;34.97;;
31270;SDS011;17904;47.420;9.310;2022-12-18T04:38:12;96.95;;;37.33;;
31270;SDS011;17904;47.420;9.310;2022-12-18T04:40:39;103.97;;;38.97;;
31270;SDS011;17904;47.420;9.310;2022-12-18T04:43:14;90.00;;;37.40;;
31270;SDS011;17904;47.420;9.310;2022-12-18T04:45:41;91.25;;;36.00;;
31270;SDS011;17904;47.420;9.310;2022-12-18T04:48:08;91.22;;;36.28;;
31270;SDS011;17904;47.420;9.310;2022-12-18T04:50:35;96.07;;;35.90;;
31270;SDS011;17904;47.420;9.310;2022-12-18T04:53:02;94.25;;;35.55;;
31270;SDS011;17904;47.420;9.310;2022-12-18T04:55:29;88.80;;;34.47;;
31270;SDS011;17904;47.420;9.310;2022-12-18T04:57:56;92.30;;;34.88;;
31270;SDS011;17904;47.420;9.310;2022-12-18T05:00:23;88.93;;;35.13;;
31270;SDS011;17904;47.420;9.310;2022-12-18T05:02:50;94.93;;;35.83;;
31270;SDS011;17904;47.420;9.310;2022-12-18T05:05:17;83.90;;;34.03;;
31270;SDS011;17904;47.420;9.310;2022-12-18T05:07:44;88.20;;;35.95;;
31270;SDS011;17904;47.420;9.310;2022-12-18T05:10:11;99.45;;;37.13;;
31270;SDS011;17904;47.420;9.310;2022-12-18T05:15:29;86.93;;;32.80;;
31270;SDS011;17904;47.420;9.310;2022-12-18T05:17:57;88.47;;;32.13;;
31270;SDS011;17904;47.420;9.310;2022-12-18T05:20:25;82.07;;;32.42;;
31270;SDS011;17904;47.420;9.310;2022-12-18T05:22:53;73.85;;;31.45;;
31270;SDS011;17904;47.420;9.310;2022-12-18T05:25:20;94.57;;;36.10;;
31270;SDS011;17904;47.420;9.310;2022-12-18T05:27:47;92.65;;;33.08;;
31270;SDS011;17904;47.420;9.310;2022-12-18T05:30:14;88.70;;;35.00;;
31270;SDS011;17904;47.420;9.310;2022-12-18T05:32:42;88.60;;;34.60;;
31270;SDS011;17904;47.420;9.310;2022-12-18T05:35:09;93.95;;;33.85;;
31270;SDS011;17904;47.420;9.310;2022-12-18T05:37:37;97.65;;;36.05;;
31270;SDS011;17904;47.420;9.310;2022-12-18T05:40:09;90.15;;;34.42;;
31270;SDS011;17904;47.420;9.310;2022-12-18T05:42:37;91.63;;;35.92;;
31270;SDS011;17904;47.420;9.310;2022-12-18T05:45:04;89.32;;;33.47;;
31270;SDS011;17904;47.420;9.310;2022-12-18T05:47:31;101.65;;;34.60;;
31270;SDS011;17904;47.420;9.310;2022-12-18T05:49:58;85.43;;;34.88;;
31270;SDS011;17904;47.420;9.310;2022-12-18T05:54:51;96.45;;;35.42;;
31270;SDS011;17904;47.420;9.310;2022-12-18T05:57:18;95.63;;;35.40;;
31270;SDS011;17904;47.420;9.310;2022-12-18T05:59:45;94.93;;;35.13;;
31270;SDS011;17904;47.420;9.310;2022-12-18T06:02:11;85.32;;;32.08;;
31270;SDS011;17904;47.420;9.310;2022-12-18T06:04:39;97.85;;;37.13;;
31270;SDS011;17904;47.420;9.310;2022-12-18T06:07:05;87.38;;;33.63;;
31270;SDS011;17904;47.420;9.310;2022-12-18T06:09:32;94.43;;;35.05;;
31270;SDS011;17904;47.420;9.310;2022-12-18T06:11:59;91.40;;;36.30;;
31270;SDS011;17904;47.420;9.310;2022-12-18T06:14:26;89.15;;;37.30;;
31270;SDS011;17904;47.420;9.310;2022-12-18T06:16:52;95.85;;;33.40;;
31270;SDS011;17904;47.420;9.310;2022-12-18T06:19:19;96.00;;;35.83;;
31270;SDS011;17904;47.420;9.310;2022-12-18T06:21:46;99.25;;;36.17;;
31270;SDS011;17904;47.420;9.310;2022-12-18T06:24:13;91.70;;;33.78;;
31270;SDS011;17904;47.420;9.310;2022-12-18T06:26:39;87.97;;;33.20;;
31270;SDS011;17904;47.420;9.310;2022-12-18T06:29:06;96.95;;;35.33;;
31270;SDS011;17904;47.420;9.310;2022-12-18T06:31:33;84.85;;;33.45;;
31270;SDS011;17904;47.420;9.310;2022-12-18T06:34:03;86.40;;;35.47;;
31270;SDS011;17904;47.420;9.310;2022-12-18T06:36:30;94.18;;;34.17;;
31270;SDS011;17904;47.420;9.310;2022-12-18T06:38:58;88.05;;;35.45;;
31270;SDS011;17904;47.420;9.310;2022-12-18T06:41:25;86.28;;;33.05;;
31270;SDS011;17904;47.420;9.310;2022-12-18T06:43:52;88.43;;;33.58;;
31270;SDS011;17904;47.420;9.310;2022-12-18T06:46:24;84.53;;;33.70;;
31270;SDS011;17904;47.420;9.310;2022-12-18T06:48:51;84.10;;;32.42;;
31270;SDS011;17904;47.420;9.310;2022-12-18T06:51:19;95.60;;;35.28;;
31270;SDS011;17904;47.420;9.310;2022-12-18T06:53:47;92.82;;;32.10;;
31270;SDS011;17904;47.420;9.310;2022-12-18T06:56:14;80.75;;;30.73;;
31270;SDS011;17904;47.420;9.310;2022-12-18T06:58:41;80.78;;;31.38;;
31270;SDS011;17904;47.420;9.310;2022-12-18T07:01:09;92.43;;;31.70;;
31270;SDS011;17904;47.420;9.310;2022-12-18T07:03:38;81.95;;;32.40;;
31270;SDS011;17904;47.420;9.310;2022-12-18T07:06:11;86.25;;;32.97;;
31270;SDS011;17904;47.420;9.310;2022-12-18T07:08:41;85.78;;;31.98;;
31270;SDS011;17904;47.420;9.310;2022-12-18T07:11:07;82.05;;;32.88;;
31270;SDS011;17904;47.420;9.310;2022-12-18T07:13:34;89.30;;;32.35;;
31270;SDS011;17904;47.420;9.310;2022-12-18T07:16:05;84.07;;;33.65;;
31270;SDS011;17904;47.420;9.310;2022-12-18T07:18:44;87.45;;;31.92;;
31270;SDS011;17904;47.420;9.310;2022-12-18T07:21:12;89.35;;;32.45;;
31270;SDS011;17904;47.420;9.310;2022-12-18T07:23:40;81.30;;;31.42;;
31270;SDS011;17904;47.420;9.310;2022-12-18T07:26:09;76.07;;;29.98;;
31270;SDS011;17904;47.420;9.310;2022-12-18T07:28:38;88.20;;;32.30;;
31270;SDS011;17904;47.420;9.310;2022-12-18T07:31:07;88.75;;;34.10;;
31270;SDS011;17904;47.420;9.310;2022-12-18T07:33:37;86.45;;;32.28;;
31270;SDS011;17904;47.420;9.310;2022-12-18T07:36:05;85.45;;;32.22;;
31270;SDS011;17904;47.420;9.310;2022-12-18T07:38:34;86.75;;;30.40;;
31270;SDS011;17904;47.420;9.310;2022-12-18T07:41:01;86.57;;;32.70;;
31270;SDS011;17904;47.420;9.310;2022-12-18T07:43:32;89.35;;;31.45;;
31270;SDS011;17904;47.420;9.310;2022-12-18T07:45:59;91.25;;;33.45;;
31270;SDS011;17904;47.420;9.310;2022-12-18T07:48:27;81.93;;;31.95;;
31270;SDS011;17904;47.420;9.310;2022-12-18T07:51:01;90.95;;;33.50;;
31270;SDS011;17904;47.420;9.310;2022-12-18T07:53:30;105.43;;;34.75;;
31270;SDS011;17904;47.420;9.310;2022-12-18T07:55:58;87.18;;;32.17;;
31270;SDS011;17904;47.420;9.310;2022-12-18T07:58:46;83.50;;;30.75;;
31270;SDS011;17904;47.420;9.310;2022-12-18T08:01:14;91.10;;;32.67;;
31270;SDS011;17904;47.420;9.310;2022-12-18T08:03:41;87.63;;;32.55;;
31270;SDS011;17904;47.420;9.310;2022-12-18T08:06:08;93.07;;;32.97;;
31270;SDS011;17904;47.420;9.310;2022-12-18T08:08:36;84.35;;;31.33;;
31270;SDS011;17904;47.420;9.310;2022-12-18T08:11:03;84.78;;;31.48;;
31270;SDS011;17904;47.420;9.310;2022-12-18T08:13:30;94.22;;;32.10;;
31270;SDS011;17904;47.420;9.310;2022-12-18T08:15:58;95.38;;;33.65;;
31270;SDS011;17904;47.420;9.310;2022-12-18T08:18:25;84.60;;;34.35;;
31270;SDS011;17904;47.420;9.310;2022-12-18T08:20:53;85.20;;;32.38;;
31270;SDS011;17904;47.420;9.310;2022-12-18T08:23:21;76.07;;;29.77;;
31270;SDS011;17904;47.420;9.310;2022-12-18T08:25:48;77.97;;;29.10;;
31270;SDS011;17904;47.420;9.310;2022-12-18T08:28:17;80.25;;;28.92;;
31270;SDS011;17904;47.420;9.310;2022-12-18T08:30:44;90.03;;;32.80;;
31270;SDS011;17904;47.420;9.310;2022-12-18T08:33:11;75.32;;;30.00;;
31270;SDS011;17904;47.420;9.310;2022-12-18T08:35:38;85.53;;;30.42;;
31270;SDS011;17904;47.420;9.310;2022-12-18T08:38:11;95.65;;;31.85;;
31270;SDS011;17904;47.420;9.310;2022-12-18T08:40:38;92.60;;;30.95;;
31270;SDS011;17904;47.420;9.310;2022-12-18T08:43:04;87.28;;;31.70;;
31270;SDS011;17904;47.420;9.310;2022-12-18T08:45:50;88.32;;;30.65;;
31270;SDS011;17904;47.420;9.310;2022-12-18T08:48:17;80.88;;;30.45;;
31270;SDS011;17904;47.420;9.310;2022-12-18T08:50:57;91.15;;;34.22;;
31270;SDS011;17904;47.420;9.310;2022-12-18T08:53:25;89.10;;;35.08;;
31270;SDS011;17904;47.420;9.310;2022-12-18T08:55:59;96.07;;;36.78;;
31270;SDS011;17904;47.420;9.310;2022-12-18T08:58:25;80.65;;;30.95;;
31270;SDS011;17904;47.420;9.310;2022-12-18T09:00:52;90.03;;;32.85;;
31270;SDS011;17904;47.420;9.310;2022-12-18T09:03:19;90.85;;;32.17;;
31270;SDS011;17904;47.420;9.310;2022-12-18T09:05:48;96.85;;;37.17;;
31270;SDS011;17904;47.420;9.310;2022-12-18T09:08:16;96.95;;;36.55;;
31270;SDS011;17904;47.420;9.310;2022-12-18T09:10:46;98.45;;;34.17;;
31270;SDS011;17904;47.420;9.310;2022-12-18T09:13:15;94.40;;;34.85;;
31270;SDS011;17904;47.420;9.310;2022-12-18T09:15:43;94.85;;;34.72;;
31270;SDS011;17904;47.420;9.310;2022-12-18T09:18:12;101.50;;;36.13;;
31270;SDS011;17904;47.420;9.310;2022-12-18T09:20:40;96.05;;;34.83;;
31270;SDS011;17904;47.420;9.310;2022-12-18T09:23:07;95.70;;;32.38;;
31270;SDS011;17904;47.420;9.310;2022-12-18T09:25:35;103.90;;;35.38;;
31270;SDS011;17904;47.420;9.310;2022-12-18T09:28:05;99.18;;;33.75;;
31270;SDS011;17904;47.420;9.310;2022-12-18T09:30:33;95.22;;;34.55;;
31270;SDS011;17904;47.420;9.310;2022-12-18T09:33:00;96.03;;;32.17;;
31270;SDS011;17904;47.420;9.310;2022-12-18T09:35:27;87.55;;;31.73;;
31270;SDS011;17904;47.420;9.310;2022-12-18T09:37:54;87.20;;;33.65;;
31270;SDS011;17904;47.420;9.310;2022-12-18T09:40:22;100.72;;;35.17;;
31270;SDS011;17904;47.420;9.310;2022-12-18T09:42:53;96.90;;;35.38;;
31270;SDS011;17904;47.420;9.310;2022-12-18T09:45:23;97.45;;;35.10;;
31270;SDS011;17904;47.420;9.310;2022-12-18T09:47:50;80.15;;;31.20;;
31270;SDS011;17904;47.420;9.310;2022-12-18T09:52:54;87.72;;;33.75;;
31270;SDS011;17904;47.420;9.310;2022-12-18T09:55:42;95.60;;;35.30;;
31270;SDS011;17904;47.420;9.310;2022-12-18T09:58:27;86.18;;;33.42;;
31270;SDS011;17904;47.420;9.310;2022-12-18T10:01:11;94.10;;;33.72;;
31270;SDS011;17904;47.420;9.310;2022-12-18T10:06:24;90.37;;;31.43;;
31270;SDS011;17904;47.420;9.310;2022-12-18T10:09:04;101.38;;;34.33;;
31270;SDS011;17904;47.420;9.310;2022-12-18T10:14:17;93.65;;;33.55;;
31270;SDS011;17904;47.420;9.310;2022-12-18T10:16:59;93.57;;;32.50;;
31270;SDS011;17904;47.420;9.310;2022-12-18T10:19:59;103.65;;;36.08;;
31270;SDS011;17904;47.420;9.310;2022-12-18T10:22:44;98.78;;;34.88;;
31270;SDS011;17904;47.420;9.310;2022-12-18T10:25:25;93.00;;;34.45;;
31270;SDS011;17904;47.420;9.310;2022-12-18T10:28:13;94.15;;;34.05;;
31270;SDS011;17904;47.420;9.310;2022-12-18T10:30:43;87.32;;;32.95;;
31270;SDS011;17904;47.420;9.310;2022-12-18T10:33:11;92.20;;;34.33;;
31270;SDS011;17904;47.420;9.310;2022-12-18T10:35:42;91.18;;;33.65;;
31270;SDS011;17904;47.420;9.310;2022-12-18T10:43:22;100.80;;;35.28;;
31270;SDS011;17904;47.420;9.310;2022-12-18T10:54:04;94.72;;;35.40;;
31270;SDS011;17904;47.420;9.310;2022-12-18T10:56:35;101.35;;;35.25;;
31270;SDS011;17904;47.420;9.310;2022-12-18T10:59:05;94.68;;;33.83;;
31270;SDS011;17904;47.420;9.310;2022-12-18T11:01:47;94.18;;;35.63;;
31270;SDS011;17904;47.420;9.310;2022-12-18T11:04:22;96.80;;;35.47;;
31270;SDS011;17904;47.420;9.310;2022-12-18T11:09:27;83.20;;;34.08;;
31270;SDS011;17904;47.420;9.310;2022-12-18T11:11:59;108.32;;;39.20;;
31270;SDS011;17904;47.420;9.310;2022-12-18T11:14:42;92.25;;;38.75;;
31270;SDS011;17904;47.420;9.310;2022-12-18T11:17:18;106.68;;;37.95;;
31270;SDS011;17904;47.420;9.310;2022-12-18T11:19:52;95.85;;;35.72;;
31270;SDS011;17904;47.420;9.310;2022-12-18T11:22:25;87.50;;;34.13;;
31270;SDS011;17904;47.420;9.310;2022-12-18T11:24:58;78.82;;;31.85;;
31270;SDS011;17904;47.420;9.310;2022-12-18T11:28:02;91.28;;;32.95;;
31270;SDS011;17904;47.420;9.310;2022-12-18T11:33:13;88.05;;;34.60;;
31270;SDS011;17904;47.420;9.310;2022-12-18T11:35:52;83.38;;;33.40;;
31270;SDS011;17904;47.420;9.310;2022-12-18T11:38:26;93.13;;;34.92;;
31270;SDS011;17904;47.420;9.310;2022-12-18T11:41:29;97.45;;;37.60;;
31270;SDS011;17904;47.420;9.310;2022-12-18T11:44:13;89.15;;;34.10;;
31270;SDS011;17904;47.420;9.310;2022-12-18T11:46:46;86.30;;;32.50;;
31270;SDS011;17904;47.420;9.310;2022-12-18T11:49:24;91.55;;;34.53;;
31270;SDS011;17904;47.420;9.310;2022-12-18T11:54:24;90.72;;;33.55;;
31270;SDS011;17904;47.420;9.310;2022-12-18T11:59:29;104.15;;;36.97;;
31270;SDS011;17904;47.420;9.310;2022-12-18T12:02:28;100.70;;;39.13;;
31270;SDS011;17904;47.420;9.310;2022-12-18T12:07:47;100.93;;;35.95;;
31270;SDS011;17904;47.420;9.310;2022-12-18T12:13:46;87.93;;;34.47;;
31270;SDS011;17904;47.420;9.310;2022-12-18T12:24:55;97.47;;;37.15;;
31270;SDS011;17904;47.420;9.310;2022-12-18T12:28:31;99.85;;;37.20;;
31270;SDS011;17904;47.420;9.310;2022-12-18T12:35:52;103.40;;;38.95;;
31270;SDS011;17904;47.420;9.310;2022-12-18T12:38:33;98.05;;;37.47;;
31270;SDS011;17904;47.420;9.310;2022-12-18T12:41:07;99.00;;;39.67;;
31270;SDS011;17904;47.420;9.310;2022-12-18T12:43:58;95.13;;;34.45;;
31270;SDS011;17904;47.420;9.310;2022-12-18T12:46:29;84.55;;;34.20;;
31270;SDS011;17904;47.420;9.310;2022-12-18T12:49:00;91.20;;;36.65;;
31270;SDS011;17904;47.420;9.310;2022-12-18T12:51:34;87.32;;;34.38;;
31270;SDS011;17904;47.420;9.310;2022-12-18T12:54:06;87.63;;;36.22;;
31270;SDS011;17904;47.420;9.310;2022-12-18T13:07:23;86.35;;;34.58;;
31270;SDS011;17904;47.420;9.310;2022-12-18T13:15:46;75.15;;;29.77;;
31270;SDS011;17904;47.420;9.310;2022-12-18T13:18:33;77.20;;;30.43;;
31270;SDS011;17904;47.420;9.310;2022-12-18T13:21:02;77.28;;;30.20;;
31270;SDS011;17904;47.420;9.310;2022-12-18T13:23:38;76.07;;;29.33;;
31270;SDS011;17904;47.420;9.310;2022-12-18T13:31:07;74.50;;;32.17;;
31270;SDS011;17904;47.420;9.310;2022-12-18T13:33:38;83.38;;;33.15;;
31270;SDS011;17904;47.420;9.310;2022-12-18T13:36:30;77.43;;;31.95;;
31270;SDS011;17904;47.420;9.310;2022-12-18T13:41:45;67.20;;;28.92;;
31270;SDS011;17904;47.420;9.310;2022-12-18T13:47:24;83.60;;;34.08;;
31270;SDS011;17904;47.420;9.310;2022-12-18T13:49:59;89.82;;;36.47;;
31270;SDS011;17904;47.420;9.310;2022-12-18T13:52:28;84.38;;;33.90;;
31270;SDS011;17904;47.420;9.310;2022-12-18T13:55:04;91.00;;;35.15;;
31270;SDS011;17904;47.420;9.310;2022-12-18T13:57:40;96.15;;;37.00;;
31270;SDS011;17904;47.420;9.310;2022-12-18T14:00:19;95.43;;;36.60;;
31270;SDS011;17904;47.420;9.310;2022-12-18T14:02:49;99.20;;;38.15;;
31270;SDS011;17904;47.420;9.310;2022-12-18T14:07:53;85.90;;;35.17;;
31270;SDS011;17904;47.420;9.310;2022-12-18T14:10:21;90.10;;;33.88;;
31270;SDS011;17904;47.420;9.310;2022-12-18T14:15:41;98.95;;;37.35;;
31270;SDS011;17904;47.420;9.310;2022-12-18T14:18:20;110.03;;;40.70;;
31270;SDS011;17904;47.420;9.310;2022-12-18T14:21:04;96.45;;;36.53;;
31270;SDS011;17904;47.420;9.310;2022-12-18T14:23:34;85.95;;;33.70;;
31270;SDS011;17904;47.420;9.310;2022-12-18T14:26:02;95.10;;;36.33;;
31270;SDS011;17904;47.420;9.310;2022-12-18T14:28:48;94.80;;;38.92;;
31270;SDS011;17904;47.420;9.310;2022-12-18T14:31:19;90.00;;;37.45;;
31270;SDS011;17904;47.420;9.310;2022-12-18T14:33:47;96.25;;;38.97;;
31270;SDS011;17904;47.420;9.310;2022-12-18T14:36:16;88.30;;;35.65;;
31270;SDS011;17904;47.420;9.310;2022-12-18T14:38:48;107.85;;;41.25;;
31270;SDS011;17904;47.420;9.310;2022-12-18T14:41:20;105.10;;;39.85;;
31270;SDS011;17904;47.420;9.310;2022-12-18T14:43:48;94.53;;;38.05;;
31270;SDS011;17904;47.420;9.310;2022-12-18T14:49:00;99.15;;;38.35;;
31270;SDS011;17904;47.420;9.310;2022-12-18T14:51:30;98.03;;;39.15;;
31270;SDS011;17904;47.420;9.310;2022-12-18T14:56:31;85.78;;;34.95;;
31270;SDS011;17904;47.420;9.310;2022-12-18T14:59:04;89.85;;;34.80;;
31270;SDS011;17904;47.420;9.310;2022-12-18T15:01:47;92.63;;;34.25;;
31270;SDS011;17904;47.420;9.310;2022-12-18T15:04:31;101.03;;;38.15;;
31270;SDS011;17904;47.420;9.310;2022-12-18T15:09:43;98.03;;;38.13;;
31270;SDS011;17904;47.420;9.310;2022-12-18T15:12:28;83.22;;;34.13;;
31270;SDS011;17904;47.420;9.310;2022-12-18T15:15:00;90.22;;;35.08;;
31270;SDS011;17904;47.420;9.310;2022-12-18T15:17:27;89.53;;;35.67;;
31270;SDS011;17904;47.420;9.310;2022-12-18T15:20:01;86.47;;;35.55;;
31270;SDS011;17904;47.420;9.310;2022-12-18T15:22:36;86.47;;;35.17;;
31270;SDS011;17904;47.420;9.310;2022-12-18T15:25:04;86.88;;;33.47;;
31270;SDS011;17904;47.420;9.310;2022-12-18T15:27:54;75.50;;;33.33;;
31270;SDS011;17904;47.420;9.310;2022-12-18T15:35:20;70.43;;;28.50;;
31270;SDS011;17904;47.420;9.310;2022-12-18T15:37:48;80.40;;;32.67;;
31270;SDS011;17904;47.420;9.310;2022-12-18T15:40:17;76.22;;;31.70;;
31270;SDS011;17904;47.420;9.310;2022-12-18T15:42:50;84.22;;;33.13;;
31270;SDS011;17904;47.420;9.310;2022-12-18T15:45:38;83.82;;;34.00;;
31270;SDS011;17904;47.420;9.310;2022-12-18T15:48:13;84.22;;;33.45;;
31270;SDS011;17904;47.420;9.310;2022-12-18T15:50:46;91.00;;;36.35;;
31270;SDS011;17904;47.420;9.310;2022-12-18T15:53:12;91.43;;;37.13;;
31270;SDS011;17904;47.420;9.310;2022-12-18T15:55:39;99.03;;;38.95;;
31270;SDS011;17904;47.420;9.310;2022-12-18T15:58:26;98.32;;;42.17;;
31270;SDS011;17904;47.420;9.310;2022-12-18T16:00:53;107.00;;;40.05;;
31270;SDS011;17904;47.420;9.310;2022-12-18T16:03:21;104.75;;;39.70;;
31270;SDS011;17904;47.420;9.310;2022-12-18T16:05:49;96.72;;;36.00;;
31270;SDS011;17904;47.420;9.310;2022-12-18T16:08:16;109.90;;;41.38;;
31270;SDS011;17904;47.420;9.310;2022-12-18T16:13:20;106.88;;;35.70;;
31270;SDS011;17904;47.420;9.310;2022-12-18T16:15:47;94.60;;;36.40;;
31270;SDS011;17904;47.420;9.310;2022-12-18T16:18:14;87.70;;;35.63;;
31270;SDS011;17904;47.420;9.310;2022-12-18T16:20:40;88.15;;;35.13;;
31270;SDS011;17904;47.420;9.310;2022-12-18T16:23:07;88.45;;;34.65;;
31270;SDS011;17904;47.420;9.310;2022-12-18T16:25:34;103.43;;;38.70;;
31270;SDS011;17904;47.420;9.310;2022-12-18T16:28:01;86.55;;;36.58;;
31270;SDS011;17904;47.420;9.310;2022-12-18T16:30:28;100.13;;;39.45;;
31270;SDS011;17904;47.420;9.310;2022-12-18T16:33:04;100.05;;;38.85;;
31270;SDS011;17904;47.420;9.310;2022-12-18T16:35:32;108.75;;;38.85;;
31270;SDS011;17904;47.420;9.310;2022-12-18T16:38:00;96.72;;;36.38;;
31270;SDS011;17904;47.420;9.310;2022-12-18T16:40:26;98.60;;;36.25;;
31270;SDS011;17904;47.420;9.310;2022-12-18T16:42:53;94.65;;;34.75;;
31270;SDS011;17904;47.420;9.310;2022-12-18T16:45:20;99.93;;;37.17;;
31270;SDS011;17904;47.420;9.310;2022-12-18T16:47:48;85.63;;;35.10;;
31270;SDS011;17904;47.420;9.310;2022-12-18T16:50:15;105.07;;;40.42;;